Time;durP1;ratioP1;P1;durP2;ratioP2;P2;SDS_P1;SDS_P2;PMS_P1;PMS_P2;Temp;Humidity;BMP_temperature;BMP_pressure;BME280_temperature;BME280_humidity;BME280_pressure;Samples;Min_cycle;Max_cycle;Signal;HPM_P1;HPM_P2
2022/02/18 00:00:50;;;;;;;6.63;1.55;;;;;;;;;;5033936;28;20104;-63
2022/02/18 00:03:16;;;;;;;8.77;1.73;;;;;;;;;;5033968;28;20029;-61
2022/02/18 00:05:43;;;;;;;4.75;1.40;;;;;;;;;;5034018;28;20100;-63
2022/02/18 00:08:09;;;;;;;7.05;1.75;;;;;;;;;;5033594;28;20108;-62
2022/02/18 00:10:35;;;;;;;6.85;1.48;;;;;;;;;;5033620;28;20030;-62
2022/02/18 00:13:01;;;;;;;5.80;2.13;;;;;;;;;;5033489;28;20561;-61
2022/02/18 00:15:27;;;;;;;5.15;1.20;;;;;;;;;;5033533;28;20034;-61
2022/02/18 00:17:53;;;;;;;3.90;1.15;;;;;;;;;;5033652;28;20096;-61
2022/02/18 00:20:20;;;;;;;2.50;1.08;;;;;;;;;;5033510;28;20423;-64
2022/02/18 00:22:46;;;;;;;4.00;1.02;;;;;;;;;;5033283;28;20037;-60
2022/02/18 00:25:12;;;;;;;5.78;1.33;;;;;;;;;;5033656;28;20413;-64
2022/02/18 00:27:39;;;;;;;7.07;1.27;;;;;;;;;;5032269;28;20447;-65
2022/02/18 00:30:06;;;;;;;3.67;1.00;;;;;;;;;;5033534;28;20048;-61
2022/02/18 00:32:32;;;;;;;6.40;1.20;;;;;;;;;;5033426;28;20381;-63
2022/02/18 00:34:58;;;;;;;5.20;1.48;;;;;;;;;;5033498;28;20056;-66
2022/02/18 00:37:25;;;;;;;7.43;1.48;;;;;;;;;;5033318;28;20028;-67
2022/02/18 00:39:51;;;;;;;4.78;0.98;;;;;;;;;;5032934;28;20056;-63
2022/02/18 00:42:17;;;;;;;5.40;1.77;;;;;;;;;;5033665;28;20091;-62
2022/02/18 00:44:43;;;;;;;5.43;1.27;;;;;;;;;;5033112;28;20104;-65
2022/02/18 00:47:10;;;;;;;7.00;1.67;;;;;;;;;;5032872;28;20147;-64
2022/02/18 00:49:36;;;;;;;3.90;1.13;;;;;;;;;;5033151;28;20036;-63
2022/02/18 00:52:03;;;;;;;4.38;1.23;;;;;;;;;;5033407;28;20037;-63
2022/02/18 00:54:29;;;;;;;5.05;1.40;;;;;;;;;;5032903;28;20056;-65
2022/02/18 00:56:55;;;;;;;3.72;1.20;;;;;;;;;;5032766;28;20029;-65
2022/02/18 00:59:21;;;;;;;6.00;1.80;;;;;;;;;;5032759;28;20040;-65
2022/02/18 01:01:48;;;;;;;6.95;1.73;;;;;;;;;;5032495;28;20041;-65
2022/02/18 01:04:14;;;;;;;3.35;1.25;;;;;;;;;;5032638;28;20094;-66
2022/02/18 01:06:41;;;;;;;6.82;1.40;;;;;;;;;;5032900;28;20095;-65
2022/02/18 01:09:07;;;;;;;9.02;1.98;;;;;;;;;;5032617;28;20018;-61
2022/02/18 01:11:33;;;;;;;6.22;1.70;;;;;;;;;;5032592;28;20391;-61
2022/02/18 01:13:59;;;;;;;6.32;1.70;;;;;;;;;;5031254;28;20049;-62
2022/02/18 01:16:27;;;;;;;5.35;1.60;;;;;;;;;;5032700;28;20041;-63
2022/02/18 01:18:53;;;;;;;6.05;1.90;;;;;;;;;;5032576;28;20029;-62
2022/02/18 01:21:19;;;;;;;5.18;1.83;;;;;;;;;;5032252;28;20503;-62
2022/02/18 01:23:45;;;;;;;9.90;2.10;;;;;;;;;;5032378;28;20072;-65
2022/02/18 01:26:11;;;;;;;8.52;2.28;;;;;;;;;;5032077;28;20029;-66
2022/02/18 01:28:37;;;;;;;7.45;2.10;;;;;;;;;;5032161;28;20044;-62
2022/02/18 01:31:03;;;;;;;7.95;2.00;;;;;;;;;;5032075;28;20033;-62
2022/02/18 01:33:29;;;;;;;7.28;1.50;;;;;;;;;;5032348;28;20037;-62
2022/02/18 01:35:55;;;;;;;5.20;1.52;;;;;;;;;;5032172;28;20043;-63
2022/02/18 01:38:21;;;;;;;4.25;1.50;;;;;;;;;;5030598;28;20115;-62
2022/02/18 01:40:48;;;;;;;7.20;1.48;;;;;;;;;;5031578;28;20491;-62
2022/02/18 01:43:14;;;;;;;4.45;1.30;;;;;;;;;;5031725;28;20033;-63
2022/02/18 01:45:40;;;;;;;5.32;1.65;;;;;;;;;;5031925;28;20084;-63
2022/02/18 01:48:06;;;;;;;5.70;1.65;;;;;;;;;;5031916;28;20513;-62
2022/02/18 01:50:32;;;;;;;4.18;1.17;;;;;;;;;;5031906;28;20037;-66
2022/02/18 01:52:59;;;;;;;5.03;1.40;;;;;;;;;;5031898;28;20116;-66
2022/02/18 01:55:27;;;;;;;6.00;1.30;;;;;;;;;;5031845;28;20116;-66
2022/02/18 01:57:53;;;;;;;5.25;1.00;;;;;;;;;;5031590;28;20437;-62
2022/02/18 02:00:20;;;;;;;4.50;0.90;;;;;;;;;;5031537;28;20029;-62
2022/02/18 02:02:46;;;;;;;4.38;1.30;;;;;;;;;;5031495;28;20029;-62
2022/02/18 02:05:13;;;;;;;6.50;1.27;;;;;;;;;;5031739;28;20429;-65
2022/02/18 02:07:39;;;;;;;5.68;1.58;;;;;;;;;;5031441;28;20457;-62
2022/02/18 02:10:06;;;;;;;5.35;1.13;;;;;;;;;;5031505;28;20104;-61
2022/02/18 02:12:38;;;;;;;3.28;0.73;;;;;;;;;;5030929;28;20575;-62
2022/02/18 02:15:05;;;;;;;4.13;1.20;;;;;;;;;;5031595;28;20144;-62
2022/02/18 02:17:32;;;;;;;5.00;1.20;;;;;;;;;;5031547;28;20029;-62
2022/02/18 02:19:58;;;;;;;7.55;1.33;;;;;;;;;;5031295;28;20399;-62
2022/02/18 02:22:30;;;;;;;5.15;1.52;;;;;;;;;;5031132;28;20042;-62
2022/02/18 02:24:56;;;;;;;9.88;1.60;;;;;;;;;;5031468;28;20501;-62
2022/02/18 02:27:23;;;;;;;6.75;1.45;;;;;;;;;;5031129;28;20029;-62
2022/02/18 02:29:49;;;;;;;4.25;1.10;;;;;;;;;;5031256;28;20036;-64
2022/02/18 02:32:15;;;;;;;8.63;1.70;;;;;;;;;;5031449;28;20025;-62
2022/02/18 02:34:41;;;;;;;9.13;1.83;;;;;;;;;;5031298;28;20048;-64
2022/02/18 02:37:08;;;;;;;6.55;1.65;;;;;;;;;;5031127;28;20441;-62
2022/02/18 02:39:34;;;;;;;6.28;1.65;;;;;;;;;;5031063;28;20097;-62
2022/02/18 02:42:00;;;;;;;5.32;1.20;;;;;;;;;;5030790;28;20038;-67
2022/02/18 02:44:27;;;;;;;3.58;1.17;;;;;;;;;;5030950;28;20030;-66
2022/02/18 02:46:53;;;;;;;7.80;1.30;;;;;;;;;;5030981;28;20061;-66
2022/02/18 02:49:19;;;;;;;3.55;0.98;;;;;;;;;;5031231;28;20021;-65
2022/02/18 02:51:45;;;;;;;3.80;1.15;;;;;;;;;;5031033;28;20053;-66
2022/02/18 02:54:11;;;;;;;6.03;1.10;;;;;;;;;;5030920;28;20025;-66
2022/02/18 02:56:37;;;;;;;5.18;1.75;;;;;;;;;;5030864;28;20486;-67
2022/02/18 02:59:03;;;;;;;8.13;1.30;;;;;;;;;;5030980;28;20033;-63
2022/02/18 03:01:30;;;;;;;5.47;1.20;;;;;;;;;;5031553;28;20037;-63
2022/02/18 03:03:56;;;;;;;6.93;1.38;;;;;;;;;;5032325;28;20022;-62
2022/02/18 03:06:22;;;;;;;5.00;1.23;;;;;;;;;;5031403;28;20075;-65
2022/02/18 03:08:48;;;;;;;4.97;1.08;;;;;;;;;;5030789;28;20533;-66
2022/02/18 03:11:15;;;;;;;6.10;1.33;;;;;;;;;;5030835;28;20426;-66
2022/02/18 03:13:41;;;;;;;5.25;1.10;;;;;;;;;;5030594;28;20604;-65
2022/02/18 03:16:07;;;;;;;6.45;1.30;;;;;;;;;;5031075;28;20474;-66
2022/02/18 03:18:33;;;;;;;7.40;1.58;;;;;;;;;;5030706;28;20037;-66
2022/02/18 03:20:59;;;;;;;3.38;1.00;;;;;;;;;;5030820;28;20085;-66
2022/02/18 03:23:25;;;;;;;4.50;1.20;;;;;;;;;;5030667;28;20112;-63
2022/02/18 03:25:51;;;;;;;5.63;1.38;;;;;;;;;;5032741;28;20044;-68
2022/02/18 03:28:17;;;;;;;4.90;1.40;;;;;;;;;;5034721;28;20055;-62
2022/02/18 03:30:43;;;;;;;8.27;1.55;;;;;;;;;;5034770;28;20346;-63
2022/02/18 03:33:11;;;;;;;7.72;1.40;;;;;;;;;;5034654;28;20108;-66
2022/02/18 03:35:37;;;;;;;8.52;1.30;;;;;;;;;;5034589;28;20032;-63
2022/02/18 03:38:04;;;;;;;7.28;1.40;;;;;;;;;;5034458;28;20107;-63
2022/02/18 03:40:30;;;;;;;7.28;1.27;;;;;;;;;;5034504;28;20021;-63
2022/02/18 03:42:56;;;;;;;7.38;1.52;;;;;;;;;;5034209;28;20056;-64
2022/02/18 03:45:22;;;;;;;8.23;1.58;;;;;;;;;;5034292;28;20041;-64
2022/02/18 03:47:49;;;;;;;8.88;2.30;;;;;;;;;;5034449;28;20037;-62
2022/02/18 03:50:15;;;;;;;5.20;1.25;;;;;;;;;;5034154;28;20022;-62
2022/02/18 03:52:41;;;;;;;6.32;1.33;;;;;;;;;;5034124;28;20018;-65
2022/02/18 03:55:07;;;;;;;7.40;1.27;;;;;;;;;;5033972;28;20021;-65
2022/02/18 03:57:33;;;;;;;6.93;1.42;;;;;;;;;;5034285;28;20104;-65
2022/02/18 03:59:59;;;;;;;7.03;1.30;;;;;;;;;;5033989;28;20467;-62
2022/02/18 04:02:25;;;;;;;5.57;1.20;;;;;;;;;;5033930;28;20397;-63
2022/02/18 04:04:53;;;;;;;6.05;1.15;;;;;;;;;;5033818;28;20413;-62
2022/02/18 04:07:19;;;;;;;8.35;1.42;;;;;;;;;;5034038;28;20053;-62
2022/02/18 04:09:45;;;;;;;10.23;1.40;;;;;;;;;;5033741;28;20033;-64
2022/02/18 04:12:11;;;;;;;7.53;1.50;;;;;;;;;;5033715;28;20116;-63
2022/02/18 04:14:37;;;;;;;6.28;1.40;;;;;;;;;;5033014;28;20346;-62
2022/02/18 04:17:04;;;;;;;4.38;1.30;;;;;;;;;;5033681;28;20049;-65
2022/02/18 04:19:30;;;;;;;7.35;1.92;;;;;;;;;;5033711;28;20521;-65
2022/02/18 04:21:56;;;;;;;7.97;1.42;;;;;;;;;;5033648;28;20037;-62
2022/02/18 04:24:22;;;;;;;6.07;1.60;;;;;;;;;;5033343;28;20466;-61
2022/02/18 04:26:48;;;;;;;6.88;1.67;;;;;;;;;;5033348;28;20036;-62
2022/02/18 04:29:14;;;;;;;6.70;1.40;;;;;;;;;;5033418;28;20083;-61
2022/02/18 04:31:40;;;;;;;6.07;1.40;;;;;;;;;;5033595;28;20061;-62
2022/02/18 04:34:06;;;;;;;6.95;2.00;;;;;;;;;;5033519;28;20030;-64
2022/02/18 04:36:32;;;;;;;7.05;1.75;;;;;;;;;;5032915;28;20029;-63
2022/02/18 04:38:58;;;;;;;6.97;1.42;;;;;;;;;;5032886;28;20033;-62
2022/02/18 04:41:24;;;;;;;9.15;1.95;;;;;;;;;;5032912;28;20037;-66
2022/02/18 04:43:51;;;;;;;8.93;1.90;;;;;;;;;;5032789;28;20026;-62
2022/02/18 04:46:17;;;;;;;5.38;1.80;;;;;;;;;;5032877;28;20505;-64
2022/02/18 04:48:43;;;;;;;7.75;1.60;;;;;;;;;;5032843;28;20025;-64
2022/02/18 04:51:09;;;;;;;6.68;2.63;;;;;;;;;;5032939;28;20076;-65
2022/02/18 04:53:35;;;;;;;10.00;1.90;;;;;;;;;;5033137;28;20029;-64
2022/02/18 04:56:04;;;;;;;7.25;1.75;;;;;;;;;;5032909;28;20033;-64
2022/02/18 04:58:30;;;;;;;7.90;2.08;;;;;;;;;;5032931;28;20022;-64
2022/02/18 05:00:56;;;;;;;5.43;2.20;;;;;;;;;;5032687;28;20060;-61
2022/02/18 05:03:22;;;;;;;8.05;2.35;;;;;;;;;;5033048;28;20033;-65
2022/02/18 05:05:48;;;;;;;7.20;1.50;;;;;;;;;;5032633;28;20266;-63
2022/02/18 05:08:14;;;;;;;6.07;1.92;;;;;;;;;;5032794;28;20029;-62
2022/02/18 05:10:40;;;;;;;11.02;5.53;;;;;;;;;;5032401;28;20105;-65
2022/02/18 05:13:06;;;;;;;20.95;7.95;;;;;;;;;;5032677;28;20017;-66
2022/02/18 05:15:32;;;;;;;17.80;8.10;;;;;;;;;;5032729;28;20033;-66
2022/02/18 05:18:02;;;;;;;15.50;4.65;;;;;;;;;;5032577;28;20041;-66
2022/02/18 05:20:29;;;;;;;16.27;5.13;;;;;;;;;;5031428;28;20034;-65
2022/02/18 05:22:55;;;;;;;13.55;4.60;;;;;;;;;;5032568;28;20566;-66
2022/02/18 05:25:21;;;;;;;11.05;3.47;;;;;;;;;;5032348;28;20471;-64
2022/02/18 05:27:47;;;;;;;10.73;3.28;;;;;;;;;;5032322;28;20105;-65
2022/02/18 05:30:14;;;;;;;12.90;4.30;;;;;;;;;;5031889;28;20036;-65
2022/02/18 05:32:40;;;;;;;13.93;4.65;;;;;;;;;;5031698;28;20445;-63
2022/02/18 05:35:06;;;;;;;36.40;15.07;;;;;;;;;;5031952;28;20194;-66
2022/02/18 05:37:33;;;;;;;24.85;10.63;;;;;;;;;;5032275;28;20060;-66
2022/02/18 05:39:59;;;;;;;16.92;7.28;;;;;;;;;;5031400;28;20021;-62
2022/02/18 05:42:25;;;;;;;18.05;6.30;;;;;;;;;;5031800;28;20037;-64
2022/02/18 05:44:51;;;;;;;19.67;6.75;;;;;;;;;;5031897;28;20026;-63
2022/02/18 05:47:17;;;;;;;42.78;21.83;;;;;;;;;;5031612;28;20038;-62
2022/02/18 05:49:43;;;;;;;57.65;34.00;;;;;;;;;;5031442;28;20429;-63
2022/02/18 05:52:09;;;;;;;26.20;14.43;;;;;;;;;;5031718;28;20037;-62
2022/02/18 05:54:35;;;;;;;19.20;8.30;;;;;;;;;;5032077;28;20021;-66
2022/02/18 05:57:02;;;;;;;16.13;6.25;;;;;;;;;;5031547;28;20053;-63
2022/02/18 05:59:29;;;;;;;13.95;5.15;;;;;;;;;;5031467;28;20548;-62
2022/02/18 06:01:55;;;;;;;11.80;4.35;;;;;;;;;;5031649;28;20033;-67
2022/02/18 06:04:21;;;;;;;12.40;4.78;;;;;;;;;;5031596;28;20032;-65
2022/02/18 06:06:47;;;;;;;10.23;3.78;;;;;;;;;;5032009;28;20466;-66
2022/02/18 06:09:13;;;;;;;9.48;3.50;;;;;;;;;;5031256;28;20025;-63
2022/02/18 06:11:39;;;;;;;13.80;4.22;;;;;;;;;;5031418;28;20100;-66
2022/02/18 06:14:06;;;;;;;48.47;16.80;;;;;;;;;;5031090;28;20083;-64
2022/02/18 06:16:32;;;;;;;121.50;46.97;;;;;;;;;;5031509;28;20083;-65
2022/02/18 06:18:58;;;;;;;67.60;26.38;;;;;;;;;;5031231;28;20104;-65
2022/02/18 06:21:24;;;;;;;17.48;6.38;;;;;;;;;;5031110;28;20029;-67
2022/02/18 06:23:50;;;;;;;19.52;8.13;;;;;;;;;;5031403;28;20036;-67
2022/02/18 06:26:17;;;;;;;26.20;10.65;;;;;;;;;;5030962;28;20017;-67
2022/02/18 06:28:43;;;;;;;29.98;11.73;;;;;;;;;;5031241;28;20035;-67
2022/02/18 06:31:09;;;;;;;17.40;6.75;;;;;;;;;;5031366;28;20037;-67
2022/02/18 06:33:35;;;;;;;13.75;5.90;;;;;;;;;;5031507;28;20116;-68
2022/02/18 06:36:02;;;;;;;14.10;5.07;;;;;;;;;;5031368;28;20381;-67
2022/02/18 06:38:28;;;;;;;15.75;4.65;;;;;;;;;;5031066;28;20029;-67
2022/02/18 06:40:54;;;;;;;12.90;4.93;;;;;;;;;;5030728;28;20109;-67
2022/02/18 06:43:20;;;;;;;17.40;5.25;;;;;;;;;;5031128;28;20064;-68
2022/02/18 06:45:46;;;;;;;17.67;5.38;;;;;;;;;;5029617;28;20474;-65
2022/02/18 06:48:12;;;;;;;16.27;5.13;;;;;;;;;;5030826;28;20548;-63
2022/02/18 06:50:40;;;;;;;18.05;5.57;;;;;;;;;;5030841;28;20030;-65
2022/02/18 06:53:07;;;;;;;18.10;5.88;;;;;;;;;;5031113;28;20018;-68
2022/02/18 06:55:34;;;;;;;19.52;6.63;;;;;;;;;;5031080;28;20052;-68
2022/02/18 06:58:01;;;;;;;28.92;12.90;;;;;;;;;;5030752;28;20037;-68
2022/02/18 07:00:28;;;;;;;39.08;16.40;;;;;;;;;;5033951;28;20021;-68
2022/02/18 07:02:54;;;;;;;18.45;7.13;;;;;;;;;;5035137;28;20045;-63
2022/02/18 07:05:20;;;;;;;18.05;5.78;;;;;;;;;;5033372;28;20053;-62
2022/02/18 07:07:46;;;;;;;14.88;5.90;;;;;;;;;;5034982;28;20028;-62
2022/02/18 07:10:13;;;;;;;8.88;4.50;;;;;;;;;;5034212;28;20044;-67
2022/02/18 07:12:40;;;;;;;12.68;3.90;;;;;;;;;;5034596;28;20098;-68
2022/02/18 07:15:07;;;;;;;11.52;3.70;;;;;;;;;;5034656;28;20025;-64
2022/02/18 07:17:34;;;;;;;12.02;2.88;;;;;;;;;;5034565;28;20042;-62
2022/02/18 07:20:02;;;;;;;12.88;5.40;;;;;;;;;;5034705;28;20029;-61
2022/02/18 07:22:28;;;;;;;13.40;5.40;;;;;;;;;;5034386;28;20041;-63
2022/02/18 07:24:54;;;;;;;9.57;3.90;;;;;;;;;;5032486;28;20433;-66
2022/02/18 07:27:21;;;;;;;10.18;3.30;;;;;;;;;;5033556;28;20092;-59
2022/02/18 07:29:47;;;;;;;9.48;3.00;;;;;;;;;;5033842;28;20029;-61
2022/02/18 07:32:13;;;;;;;9.45;3.13;;;;;;;;;;5034413;28;20444;-65
2022/02/18 07:34:40;;;;;;;13.45;3.20;;;;;;;;;;5033999;28;20025;-61
2022/02/18 07:37:06;;;;;;;10.45;3.00;;;;;;;;;;5033863;28;20068;-65
2022/02/18 07:39:32;;;;;;;9.73;3.15;;;;;;;;;;5033702;28;20108;-61
2022/02/18 07:41:59;;;;;;;8.40;3.33;;;;;;;;;;5033205;28;20556;-62
2022/02/18 07:44:25;;;;;;;9.82;2.80;;;;;;;;;;5033619;28;20383;-66
2022/02/18 07:46:52;;;;;;;9.77;3.38;;;;;;;;;;5033363;28;20458;-61
2022/02/18 07:49:18;;;;;;;8.60;2.70;;;;;;;;;;5033882;28;20425;-61
2022/02/18 07:51:44;;;;;;;10.20;2.85;;;;;;;;;;5033661;28;20365;-63
2022/02/18 07:54:10;;;;;;;13.07;2.88;;;;;;;;;;5033801;28;20421;-61
2022/02/18 07:56:36;;;;;;;7.55;2.25;;;;;;;;;;5033938;28;20022;-66
2022/02/18 07:59:02;;;;;;;10.02;2.40;;;;;;;;;;5033786;28;20445;-60
2022/02/18 08:01:28;;;;;;;10.70;3.10;;;;;;;;;;5033545;28;20450;-67
2022/02/18 08:03:56;;;;;;;10.18;2.55;;;;;;;;;;5033728;28;20029;-63
2022/02/18 08:06:22;;;;;;;8.50;2.55;;;;;;;;;;5033841;28;20478;-63
2022/02/18 08:08:48;;;;;;;9.30;2.80;;;;;;;;;;5033479;28;20029;-63
2022/02/18 08:11:16;;;;;;;9.45;2.35;;;;;;;;;;5032355;28;20021;-61
2022/02/18 08:13:42;;;;;;;9.32;2.65;;;;;;;;;;5033594;28;20059;-63
2022/02/18 08:16:08;;;;;;;8.52;2.53;;;;;;;;;;5033576;28;20075;-63
2022/02/18 08:18:37;;;;;;;10.73;2.90;;;;;;;;;;5033563;28;20072;-63
2022/02/18 08:21:03;;;;;;;9.20;2.13;;;;;;;;;;5032854;28;20112;-62
2022/02/18 08:23:29;;;;;;;8.20;2.78;;;;;;;;;;5031503;28;20040;-63
2022/02/18 08:25:55;;;;;;;9.20;3.17;;;;;;;;;;5032926;28;20469;-63
2022/02/18 08:28:21;;;;;;;10.30;2.40;;;;;;;;;;5032694;28;20148;-61
2022/02/18 08:30:48;;;;;;;9.02;2.42;;;;;;;;;;5033038;28;20032;-62
2022/02/18 08:33:14;;;;;;;12.63;2.95;;;;;;;;;;5033202;28;20091;-62
2022/02/18 08:35:41;;;;;;;8.60;2.22;;;;;;;;;;5033200;28;20022;-62
2022/02/18 08:38:07;;;;;;;8.55;2.08;;;;;;;;;;5033151;28;20104;-65
2022/02/18 08:40:34;;;;;;;8.63;2.10;;;;;;;;;;5032730;28;20089;-61
2022/02/18 08:43:01;;;;;;;7.78;2.45;;;;;;;;;;5032815;28;20113;-62
2022/02/18 08:45:27;;;;;;;4.88;1.73;;;;;;;;;;5032788;28;20084;-64
2022/02/18 08:47:53;;;;;;;8.57;2.30;;;;;;;;;;5033142;28;20041;-61
2022/02/18 08:50:20;;;;;;;10.10;2.80;;;;;;;;;;5032832;28;20028;-62
2022/02/18 08:52:46;;;;;;;7.65;2.10;;;;;;;;;;5032862;28;20029;-66
2022/02/18 08:55:12;;;;;;;7.05;2.30;;;;;;;;;;5032991;28;20048;-63
2022/02/18 08:57:41;;;;;;;6.93;2.00;;;;;;;;;;5032291;28;20252;-62
2022/02/18 09:00:09;;;;;;;8.93;2.20;;;;;;;;;;5032759;28;20088;-62
2022/02/18 09:02:35;;;;;;;9.65;2.10;;;;;;;;;;5032562;28;20068;-62
2022/02/18 09:05:04;;;;;;;8.27;2.03;;;;;;;;;;5032715;28;20021;-63
2022/02/18 09:07:30;;;;;;;9.25;2.13;;;;;;;;;;5032673;28;20053;-61
2022/02/18 09:09:56;;;;;;;7.68;2.17;;;;;;;;;;5032743;28;20082;-66
2022/02/18 09:12:23;;;;;;;10.68;2.92;;;;;;;;;;5032406;28;20025;-63
2022/02/18 09:14:49;;;;;;;8.02;2.17;;;;;;;;;;5032550;28;20109;-61
2022/02/18 09:17:15;;;;;;;10.82;2.30;;;;;;;;;;5032173;28;20061;-62
2022/02/18 09:19:41;;;;;;;9.48;2.42;;;;;;;;;;5032273;28;20022;-60
2022/02/18 09:22:07;;;;;;;7.47;2.30;;;;;;;;;;5031987;28;20060;-62
2022/02/18 09:24:34;;;;;;;10.73;2.35;;;;;;;;;;5032079;28;20366;-61
2022/02/18 09:27:00;;;;;;;7.60;2.38;;;;;;;;;;5031893;28;20136;-62
2022/02/18 09:29:29;;;;;;;6.80;2.30;;;;;;;;;;5032181;28;20048;-62
2022/02/18 09:31:55;;;;;;;9.13;2.10;;;;;;;;;;5032177;28;20032;-64
2022/02/18 09:34:22;;;;;;;9.93;2.28;;;;;;;;;;5032222;28;20061;-63
2022/02/18 09:36:48;;;;;;;11.02;3.42;;;;;;;;;;5032074;28;20025;-62
2022/02/18 09:39:14;;;;;;;9.35;3.45;;;;;;;;;;5031670;28;20105;-62
2022/02/18 09:41:44;;;;;;;8.80;2.53;;;;;;;;;;5031259;28;20037;-62
2022/02/18 09:44:14;;;;;;;10.85;2.38;;;;;;;;;;5031629;28;20109;-65
2022/02/18 09:46:40;;;;;;;7.57;2.15;;;;;;;;;;5031684;28;20498;-62
2022/02/18 09:49:06;;;;;;;9.80;2.42;;;;;;;;;;5031689;28;20037;-62
2022/02/18 09:51:37;;;;;;;11.73;2.53;;;;;;;;;;5031795;28;20500;-61
2022/02/18 09:54:03;;;;;;;9.75;2.63;;;;;;;;;;5031327;28;20033;-61
2022/02/18 09:56:32;;;;;;;11.32;2.58;;;;;;;;;;5031404;28;20107;-62
2022/02/18 09:59:01;;;;;;;10.73;2.38;;;;;;;;;;5031034;28;20533;-68
2022/02/18 10:01:27;;;;;;;9.70;2.38;;;;;;;;;;5029919;28;20410;-64
2022/02/18 10:03:53;;;;;;;10.73;2.30;;;;;;;;;;5031142;28;20029;-62
2022/02/18 10:06:19;;;;;;;8.07;1.92;;;;;;;;;;5031273;28;20033;-63
2022/02/18 10:08:49;;;;;;;7.47;2.60;;;;;;;;;;5031628;28;20060;-64
2022/02/18 10:11:15;;;;;;;7.07;1.92;;;;;;;;;;5031029;28;20112;-62
2022/02/18 10:13:42;;;;;;;6.68;2.25;;;;;;;;;;5031424;28;20025;-63
2022/02/18 10:16:37;;;;;;;9.23;2.90;;;;;;;;;;5031532;28;20108;-63
2022/02/18 10:19:10;;;;;;;8.55;3.05;;;;;;;;;;5028653;28;20051;-62
2022/02/18 10:21:37;;;;;;;8.32;2.20;;;;;;;;;;5028818;28;20151;-63
2022/02/18 10:24:07;;;;;;;9.90;2.17;;;;;;;;;;5028529;28;20038;-63
2022/02/18 10:26:54;;;;;;;6.60;2.00;;;;;;;;;;5028359;28;20025;-64
2022/02/18 10:29:21;;;;;;;8.82;2.42;;;;;;;;;;5028608;28;20045;-65
2022/02/18 10:32:05;;;;;;;10.65;2.50;;;;;;;;;;5028775;28;20100;-63
2022/02/18 10:34:31;;;;;;;9.40;2.30;;;;;;;;;;5027788;28;20084;-64
2022/02/18 10:37:05;;;;;;;7.57;2.42;;;;;;;;;;5028665;28;20029;-64
2022/02/18 10:39:33;;;;;;;14.70;3.33;;;;;;;;;;5028687;28;20127;-62
2022/02/18 10:42:03;;;;;;;13.98;3.40;;;;;;;;;;5028381;28;20448;-63
2022/02/18 10:44:30;;;;;;;11.27;2.85;;;;;;;;;;5028390;28;20052;-63
2022/02/18 10:46:56;;;;;;;9.35;2.95;;;;;;;;;;5028331;28;20136;-63
2022/02/18 10:49:23;;;;;;;10.85;2.78;;;;;;;;;;5028523;28;20363;-64
2022/02/18 10:51:52;;;;;;;11.27;2.80;;;;;;;;;;5027564;28;20498;-64
2022/02/18 10:54:29;;;;;;;7.18;2.30;;;;;;;;;;5026396;28;20021;-63
2022/02/18 10:57:12;;;;;;;7.55;1.80;;;;;;;;;;5025350;28;20037;-63
2022/02/18 10:59:38;;;;;;;12.50;2.53;;;;;;;;;;5030369;28;20072;-64
2022/02/18 11:02:04;;;;;;;8.27;2.10;;;;;;;;;;5030218;28;20037;-64
2022/02/18 11:04:30;;;;;;;7.40;2.20;;;;;;;;;;5030804;28;20029;-64
2022/02/18 11:07:09;;;;;;;9.32;2.72;;;;;;;;;;5030682;28;20029;-64
2022/02/18 11:09:35;;;;;;;7.90;2.38;;;;;;;;;;5030708;28;20336;-66
2022/02/18 11:12:06;;;;;;;9.55;2.42;;;;;;;;;;5030047;28;20486;-65
2022/02/18 11:14:32;;;;;;;5.45;1.85;;;;;;;;;;5030805;28;20120;-66
2022/02/18 11:16:59;;;;;;;10.10;1.95;;;;;;;;;;5030691;28;20491;-66
2022/02/18 11:19:25;;;;;;;9.15;1.80;;;;;;;;;;5030567;28;20029;-65
2022/02/18 11:21:51;;;;;;;5.10;1.20;;;;;;;;;;5030967;28;20045;-64
2022/02/18 11:24:18;;;;;;;6.60;1.75;;;;;;;;;;5030429;28;20036;-64
2022/02/18 11:26:45;;;;;;;6.95;2.03;;;;;;;;;;5030203;28;20100;-63
2022/02/18 11:29:11;;;;;;;3.40;1.17;;;;;;;;;;5030653;28;20331;-65
2022/02/18 11:31:43;;;;;;;6.78;1.38;;;;;;;;;;5030423;28;20026;-65
2022/02/18 11:34:09;;;;;;;8.63;1.85;;;;;;;;;;5030517;28;20037;-65
2022/02/18 11:36:54;;;;;;;11.20;3.00;;;;;;;;;;5030322;28;20029;-64
2022/02/18 11:39:26;;;;;;;7.60;2.28;;;;;;;;;;5030413;28;20026;-64
2022/02/18 11:41:55;;;;;;;11.10;1.67;;;;;;;;;;5029323;28;20033;-64
2022/02/18 11:44:31;;;;;;;4.18;1.40;;;;;;;;;;5030276;28;20029;-65
2022/02/18 11:47:24;;;;;;;11.40;2.08;;;;;;;;;;5031991;28;20049;-63
2022/02/18 11:49:50;;;;;;;;;;;;;;;;;;5033695;28;20072;-64
2022/02/18 11:52:17;;;;;;;6.15;1.98;;;;;;;;;;5033883;28;19913;-62
2022/02/18 11:54:44;;;;;;;9.05;2.40;;;;;;;;;;5033418;28;20021;-62
2022/02/18 11:57:11;;;;;;;4.57;1.45;;;;;;;;;;5033419;28;20018;-64
2022/02/18 11:59:59;;;;;;;6.10;1.67;;;;;;;;;;5033608;28;20484;-63
2022/02/18 12:02:40;;;;;;;8.52;1.83;;;;;;;;;;5033555;28;20041;-64
2022/02/18 12:05:11;;;;;;;5.97;2.13;;;;;;;;;;5033667;28;20148;-63
2022/02/18 12:07:39;;;;;;;9.07;2.38;;;;;;;;;;5032844;28;20049;-64
2022/02/18 12:10:17;;;;;;;11.27;2.92;;;;;;;;;;5033372;28;20030;-67
2022/02/18 12:12:43;;;;;;;9.32;2.90;;;;;;;;;;5033286;28;20056;-66
2022/02/18 12:15:17;;;;;;;7.25;2.53;;;;;;;;;;5033747;28;20112;-66
2022/02/18 12:17:48;;;;;;;9.02;2.67;;;;;;;;;;5033563;28;20041;-64
2022/02/18 12:20:19;;;;;;;10.95;2.33;;;;;;;;;;5032271;28;20026;-66
2022/02/18 12:22:45;;;;;;;11.02;2.33;;;;;;;;;;5032967;28;20476;-63
2022/02/18 12:25:22;;;;;;;7.57;2.50;;;;;;;;;;5033469;28;20033;-63
2022/02/18 12:27:49;;;;;;;7.53;2.15;;;;;;;;;;5033100;28;20110;-65
2022/02/18 12:30:25;;;;;;;8.60;2.60;;;;;;;;;;5032978;28;20032;-63
2022/02/18 12:32:53;;;;;;;8.27;2.47;;;;;;;;;;5031863;28;20029;-63
2022/02/18 12:35:27;;;;;;;8.52;2.30;;;;;;;;;;5033248;28;20080;-64
2022/02/18 12:37:54;;;;;;;8.05;2.33;;;;;;;;;;5032047;28;20541;-63
2022/02/18 12:40:20;;;;;;;8.13;2.13;;;;;;;;;;5032907;28;20021;-63
2022/02/18 12:42:49;;;;;;;8.80;1.85;;;;;;;;;;5032796;28;20429;-63
2022/02/18 12:45:15;;;;;;;7.82;2.20;;;;;;;;;;5032950;28;20305;-64
2022/02/18 12:47:44;;;;;;;8.52;2.53;;;;;;;;;;5033031;28;20041;-65
2022/02/18 12:50:12;;;;;;;9.38;2.40;;;;;;;;;;5032839;28;20037;-63
2022/02/18 12:52:38;;;;;;;8.48;2.22;;;;;;;;;;5032813;28;20052;-62
2022/02/18 12:55:09;;;;;;;10.38;2.83;;;;;;;;;;5032616;28;20026;-63
2022/02/18 12:57:37;;;;;;;8.45;2.42;;;;;;;;;;5032294;28;20026;-65
2022/02/18 13:00:07;;;;;;;11.60;2.53;;;;;;;;;;5032535;28;20033;-63
2022/02/18 13:02:37;;;;;;;8.77;2.55;;;;;;;;;;5032530;28;20565;-63
2022/02/18 13:05:15;;;;;;;8.23;2.38;;;;;;;;;;5032602;28;20031;-63
2022/02/18 13:07:42;;;;;;;7.85;2.00;;;;;;;;;;5032471;28;20033;-63
2022/02/18 13:10:10;;;;;;;9.85;2.35;;;;;;;;;;5032226;28;20115;-63
2022/02/18 13:12:43;;;;;;;9.93;2.65;;;;;;;;;;5032130;28;20132;-65
2022/02/18 13:15:13;;;;;;;6.68;2.35;;;;;;;;;;5032192;28;20115;-63
2022/02/18 13:17:40;;;;;;;10.00;3.85;;;;;;;;;;5032292;28;20494;-63
2022/02/18 13:20:07;;;;;;;8.45;2.78;;;;;;;;;;5032160;28;20108;-65
2022/02/18 13:22:36;;;;;;;9.07;2.83;;;;;;;;;;5031758;28;20417;-62
2022/02/18 13:25:21;;;;;;;10.10;3.17;;;;;;;;;;5032357;28;20029;-63
2022/02/18 13:27:47;;;;;;;11.57;2.40;;;;;;;;;;5032586;28;20029;-63
2022/02/18 13:30:13;;;;;;;6.97;2.03;;;;;;;;;;5031670;28;20017;-63
2022/02/18 13:32:39;;;;;;;8.35;1.95;;;;;;;;;;5032126;28;20029;-63
2022/02/18 13:35:06;;;;;;;9.90;2.80;;;;;;;;;;5029624;28;20383;-62
2022/02/18 13:37:35;;;;;;;12.35;3.10;;;;;;;;;;5031579;28;20803;-62
2022/02/18 13:40:03;;;;;;;8.88;2.10;;;;;;;;;;5031324;28;20029;-62
2022/02/18 13:42:30;;;;;;;9.52;2.58;;;;;;;;;;5031302;28;20490;-62
2022/02/18 13:45:00;;;;;;;10.10;2.67;;;;;;;;;;5031583;28;20351;-63
2022/02/18 13:47:26;;;;;;;8.45;2.58;;;;;;;;;;5031752;28;20042;-66
2022/02/18 13:49:52;;;;;;;10.82;2.38;;;;;;;;;;5031471;28;20076;-61
2022/02/18 13:52:18;;;;;;;8.75;2.17;;;;;;;;;;5031841;28;20071;-62
2022/02/18 13:54:44;;;;;;;7.82;2.05;;;;;;;;;;5031499;28;20462;-63
2022/02/18 13:57:12;;;;;;;7.38;2.58;;;;;;;;;;5031430;28;20029;-63
2022/02/18 13:59:40;;;;;;;11.55;2.05;;;;;;;;;;5031429;28;20024;-62
2022/02/18 14:02:26;;;;;;;10.00;2.53;;;;;;;;;;5031337;28;20116;-64
2022/02/18 14:04:54;;;;;;;11.50;2.47;;;;;;;;;;5031485;28;20496;-64
2022/02/18 14:07:24;;;;;;;12.88;2.90;;;;;;;;;;5031264;28;20109;-63
2022/02/18 14:09:52;;;;;;;10.75;2.28;;;;;;;;;;5030453;28;20108;-65
2022/02/18 14:12:19;;;;;;;12.98;2.75;;;;;;;;;;5030823;28;20033;-63
2022/02/18 14:14:58;;;;;;;10.82;2.35;;;;;;;;;;5030911;28;20029;-63
2022/02/18 14:17:27;;;;;;;11.90;2.80;;;;;;;;;;5031059;28;20104;-63
2022/02/18 14:19:55;;;;;;;11.13;2.70;;;;;;;;;;5030678;28;20017;-64
2022/02/18 14:22:26;;;;;;;12.02;3.13;;;;;;;;;;5030116;28;20026;-63
2022/02/18 14:24:52;;;;;;;8.00;2.42;;;;;;;;;;5030279;28;20022;-65
2022/02/18 14:27:20;;;;;;;9.07;2.63;;;;;;;;;;5030877;28;20072;-64
2022/02/18 14:30:03;;;;;;;9.35;2.78;;;;;;;;;;5030755;28;20055;-63
2022/02/18 14:32:38;;;;;;;10.82;2.72;;;;;;;;;;5031039;28;20030;-66
2022/02/18 14:35:22;;;;;;;6.97;2.40;;;;;;;;;;5030947;28;20022;-64
2022/02/18 14:38:05;;;;;;;8.25;2.22;;;;;;;;;;5030941;28;20104;-64
2022/02/18 14:40:38;;;;;;;7.78;2.22;;;;;;;;;;5030834;28;20029;-64